sensor_id;sensor_type;location;lat;lon;timestamp;pressure;altitude;pressure_sealevel;temperature;humidity
10466;BME280;5280;42.600;23.556;2023-01-16T00:02:14;93298.34;;;1.45;100.00
10466;BME280;5280;42.600;23.556;2023-01-16T00:04:41;93292.47;;;1.41;100.00
10466;BME280;5280;42.600;23.556;2023-01-16T00:07:08;93291.06;;;1.34;100.00
10466;BME280;5280;42.600;23.556;2023-01-16T00:09:37;93223.66;;;0.91;100.00
10466;BME280;5280;42.600;23.556;2023-01-16T00:12:08;93257.09;;;1.18;100.00
10466;BME280;5280;42.600;23.556;2023-01-16T00:14:37;93281.56;;;1.33;100.00
10466;BME280;5280;42.600;23.556;2023-01-16T00:17:04;93299.41;;;1.41;100.00
10466;BME280;5280;42.600;23.556;2023-01-16T00:19:31;93302.75;;;1.44;100.00
10466;BME280;5280;42.600;23.556;2023-01-16T00:21:58;93284.72;;;1.40;100.00
10466;BME280;5280;42.600;23.556;2023-01-16T00:24:25;93303.56;;;1.45;100.00
10466;BME280;5280;42.600;23.556;2023-01-16T00:26:53;93296.69;;;1.44;100.00
10466;BME280;5280;42.600;23.556;2023-01-16T00:29:21;93308.06;;;1.41;100.00
10466;BME280;5280;42.600;23.556;2023-01-16T00:31:48;93309.84;;;1.41;100.00
10466;BME280;5280;42.600;23.556;2023-01-16T00:34:15;93295.34;;;1.35;100.00
10466;BME280;5280;42.600;23.556;2023-01-16T00:36:45;93280.09;;;1.27;100.00
10466;BME280;5280;42.600;23.556;2023-01-16T00:39:12;93280.25;;;1.24;100.00
10466;BME280;5280;42.600;23.556;2023-01-16T00:41:42;93275.78;;;1.26;100.00
10466;BME280;5280;42.600;23.556;2023-01-16T00:44:11;93286.88;;;1.30;100.00
10466;BME280;5280;42.600;23.556;2023-01-16T00:46:41;93278.53;;;1.23;100.00
10466;BME280;5280;42.600;23.556;2023-01-16T00:49:08;93269.88;;;1.23;100.00
10466;BME280;5280;42.600;23.556;2023-01-16T00:51:38;93261.56;;;1.15;100.00
10466;BME280;5280;42.600;23.556;2023-01-16T00:54:05;93260.38;;;1.22;100.00
10466;BME280;5280;42.600;23.556;2023-01-16T00:56:35;93257.72;;;1.23;100.00
10466;BME280;5280;42.600;23.556;2023-01-16T00:59:03;93215.31;;;1.03;100.00
10466;BME280;5280;42.600;23.556;2023-01-16T01:01:35;93241.53;;;1.17;100.00
10466;BME280;5280;42.600;23.556;2023-01-16T01:04:04;93237.97;;;1.19;100.00
10466;BME280;5280;42.600;23.556;2023-01-16T01:06:31;93244.75;;;1.22;100.00
10466;BME280;5280;42.600;23.556;2023-01-16T01:08:58;93242.22;;;1.20;100.00
10466;BME280;5280;42.600;23.556;2023-01-16T01:11:25;93241.38;;;1.20;100.00
10466;BME280;5280;42.600;23.556;2023-01-16T01:13:52;93239.72;;;1.19;100.00
10466;BME280;5280;42.600;23.556;2023-01-16T01:16:19;93242.59;;;1.13;100.00
10466;BME280;5280;42.600;23.556;2023-01-16T01:18:48;93242.44;;;1.16;100.00
10466;BME280;5280;42.600;23.556;2023-01-16T01:21:15;93238.34;;;1.10;100.00
10466;BME280;5280;42.600;23.556;2023-01-16T01:23:43;93245.94;;;1.15;100.00
10466;BME280;5280;42.600;23.556;2023-01-16T01:26:12;93252.94;;;1.14;100.00
10466;BME280;5280;42.600;23.556;2023-01-16T01:28:40;93247.00;;;1.11;100.00
10466;BME280;5280;42.600;23.556;2023-01-16T01:31:10;93256.28;;;1.16;100.00
10466;BME280;5280;42.600;23.556;2023-01-16T01:33:39;93254.19;;;1.06;100.00
10466;BME280;5280;42.600;23.556;2023-01-16T01:36:09;93248.22;;;1.04;100.00
10466;BME280;5280;42.600;23.556;2023-01-16T01:38:36;93257.16;;;1.17;100.00
10466;BME280;5280;42.600;23.556;2023-01-16T01:41:06;93255.59;;;1.13;100.00
10466;BME280;5280;42.600;23.556;2023-01-16T01:43:44;93251.88;;;1.18;100.00
10466;BME280;5280;42.600;23.556;2023-01-16T01:46:20;93251.03;;;1.18;100.00
10466;BME280;5280;42.600;23.556;2023-01-16T01:48:51;93245.19;;;1.13;100.00
10466;BME280;5280;42.600;23.556;2023-01-16T01:51:24;93242.59;;;1.13;100.00
10466;BME280;5280;42.600;23.556;2023-01-16T01:53:55;93223.97;;;1.03;100.00
10466;BME280;5280;42.600;23.556;2023-01-16T01:56:27;93221.25;;;1.05;100.00
10466;BME280;5280;42.600;23.556;2023-01-16T01:58:59;93201.03;;;0.93;100.00
10466;BME280;5280;42.600;23.556;2023-01-16T02:01:28;93195.97;;;0.90;100.00
10466;BME280;5280;42.600;23.556;2023-01-16T02:04:01;93195.97;;;0.90;100.00
10466;BME280;5280;42.600;23.556;2023-01-16T02:06:36;93219.88;;;0.98;100.00
10466;BME280;5280;42.600;23.556;2023-01-16T02:09:09;93220.63;;;1.00;100.00
10466;BME280;5280;42.600;23.556;2023-01-16T02:11:40;93213.66;;;1.00;100.00
10466;BME280;5280;42.600;23.556;2023-01-16T02:14:11;93203.56;;;0.94;100.00
10466;BME280;5280;42.600;23.556;2023-01-16T02:16:39;93201.72;;;0.96;100.00
10466;BME280;5280;42.600;23.556;2023-01-16T02:19:30;93182.34;;;0.84;100.00
10466;BME280;5280;42.600;23.556;2023-01-16T02:25:56;93188.94;;;0.92;100.00
10466;BME280;5280;42.600;23.556;2023-01-16T02:28:47;93186.31;;;0.92;100.00
10466;BME280;5280;42.600;23.556;2023-01-16T02:31:30;93182.81;;;0.93;100.00
10466;BME280;5280;42.600;23.556;2023-01-16T02:34:25;93180.22;;;0.93;100.00
10466;BME280;5280;42.600;23.556;2023-01-16T02:37:04;93177.56;;;0.94;100.00
10466;BME280;5280;42.600;23.556;2023-01-16T02:39:42;93151.31;;;0.80;100.00
10466;BME280;5280;42.600;23.556;2023-01-16T02:42:22;93180.22;;;0.93;100.00
10466;BME280;5280;42.600;23.556;2023-01-16T02:45:00;93176.56;;;0.97;100.00
10466;BME280;5280;42.600;23.556;2023-01-16T02:47:38;93144.22;;;0.83;100.00
10466;BME280;5280;42.600;23.556;2023-01-16T02:50:12;93156.66;;;0.96;100.00
10466;BME280;5280;42.600;23.556;2023-01-16T02:52:53;93168.47;;;1.03;100.00
10466;BME280;5280;42.600;23.556;2023-01-16T02:55:28;93166.00;;;1.00;100.00
10466;BME280;5280;42.600;23.556;2023-01-16T02:58:01;93171.13;;;1.01;100.00
10466;BME280;5280;42.600;23.556;2023-01-16T03:00:48;93164.97;;;1.04;100.00
10466;BME280;5280;42.600;23.556;2023-01-16T03:03:40;93150.31;;;1.01;100.00
10466;BME280;5280;42.600;23.556;2023-01-16T03:06:22;93157.22;;;1.02;100.00
10466;BME280;5280;42.600;23.556;2023-01-16T03:08:57;93154.56;;;1.04;100.00
10466;BME280;5280;42.600;23.556;2023-01-16T03:11:28;93148.00;;;0.95;100.00
10466;BME280;5280;42.600;23.556;2023-01-16T03:14:06;93154.78;;;0.99;100.00
10466;BME280;5280;42.600;23.556;2023-01-16T03:16:44;93148.56;;;1.02;100.00
10466;BME280;5280;42.600;23.556;2023-01-16T03:19:26;93136.47;;;1.01;100.00
10466;BME280;5280;42.600;23.556;2023-01-16T03:22:06;93112.75;;;0.90;100.00
10466;BME280;5280;42.600;23.556;2023-01-16T03:24:45;93123.00;;;0.93;100.00
10466;BME280;5280;42.600;23.556;2023-01-16T03:27:23;93119.31;;;0.97;100.00
10466;BME280;5280;42.600;23.556;2023-01-16T03:29:57;93103.53;;;0.82;100.00
10466;BME280;5280;42.600;23.556;2023-01-16T03:32:32;93120.22;;;0.96;100.00
10466;BME280;5280;42.600;23.556;2023-01-16T03:35:07;93113.03;;;0.83;100.00
10466;BME280;5280;42.600;23.556;2023-01-16T03:37:40;93123.00;;;0.93;100.00
10466;BME280;5280;42.600;23.556;2023-01-16T03:40:13;93119.47;;;0.94;100.00
10466;BME280;5280;42.600;23.556;2023-01-16T03:42:45;93099.38;;;0.78;100.00
10466;BME280;5280;42.600;23.556;2023-01-16T03:45:21;93109.13;;;0.92;100.00
10466;BME280;5280;42.600;23.556;2023-01-16T03:47:52;93109.19;;;0.91;100.00
10466;BME280;5280;42.600;23.556;2023-01-16T03:50:26;93107.94;;;0.80;100.00
10466;BME280;5280;42.600;23.556;2023-01-16T03:52:57;93112.13;;;0.84;100.00
10466;BME280;5280;42.600;23.556;2023-01-16T03:55:32;93084.22;;;0.69;100.00
10466;BME280;5280;42.600;23.556;2023-01-16T03:58:04;93068.47;;;0.72;100.00
10466;BME280;5280;42.600;23.556;2023-01-16T04:00:38;93092.06;;;0.86;100.00
10466;BME280;5280;42.600;23.556;2023-01-16T04:03:12;93098.53;;;0.78;100.00
10466;BME280;5280;42.600;23.556;2023-01-16T04:05:47;93089.75;;;0.80;100.00
10466;BME280;5280;42.600;23.556;2023-01-16T04:08:18;93071.22;;;0.69;100.00
10466;BME280;5280;42.600;23.556;2023-01-16T04:10:49;93070.19;;;0.55;100.00
10466;BME280;5280;42.600;23.556;2023-01-16T04:13:21;93062.78;;;0.64;100.00
10466;BME280;5280;42.600;23.556;2023-01-16T04:15:56;93074.56;;;0.71;100.00
10466;BME280;5280;42.600;23.556;2023-01-16T04:18:28;93080.41;;;0.76;100.00
10466;BME280;5280;42.600;23.556;2023-01-16T04:20:58;93068.03;;;0.81;100.00
10466;BME280;5280;42.600;23.556;2023-01-16T04:23:28;93062.97;;;0.78;100.00
10466;BME280;5280;42.600;23.556;2023-01-16T04:25:55;93073.09;;;0.84;100.00
10466;BME280;5280;42.600;23.556;2023-01-16T04:28:23;93074.00;;;0.83;100.00
10466;BME280;5280;42.600;23.556;2023-01-16T04:31:28;93079.00;;;0.88;100.00
10466;BME280;5280;42.600;23.556;2023-01-16T04:33:48;93081.88;;;0.82;100.00
10466;BME280;5280;42.600;23.556;2023-01-16T04:36:17;93077.97;;;0.73;100.00
10466;BME280;5280;42.600;23.556;2023-01-16T04:38:44;93070.16;;;0.73;100.00
10466;BME280;5280;42.600;23.556;2023-01-16T04:41:11;93087.28;;;0.77;100.00
10466;BME280;5280;42.600;23.556;2023-01-16T04:43:38;93085.47;;;0.79;100.00
10466;BME280;5280;42.600;23.556;2023-01-16T04:46:06;93080.34;;;0.78;100.00
10466;BME280;5280;42.600;23.556;2023-01-16T04:48:33;93067.56;;;0.73;100.00
10466;BME280;5280;42.600;23.556;2023-01-16T04:51:00;93064.81;;;0.76;100.00
10466;BME280;5280;42.600;23.556;2023-01-16T04:53:28;93050.25;;;0.72;100.00
10466;BME280;5280;42.600;23.556;2023-01-16T04:55:58;93047.88;;;0.68;100.00
10466;BME280;5280;42.600;23.556;2023-01-16T04:58:25;93068.47;;;0.72;100.00
10466;BME280;5280;42.600;23.556;2023-01-16T05:00:53;93065.09;;;0.70;100.00
10466;BME280;5280;42.600;23.556;2023-01-16T05:03:20;93072.25;;;0.65;100.00
10466;BME280;5280;42.600;23.556;2023-01-16T05:05:50;93073.47;;;0.58;100.00
10466;BME280;5280;42.600;23.556;2023-01-16T05:08:20;93059.00;;;0.53;100.00
10466;BME280;5280;42.600;23.556;2023-01-16T05:10:53;93057.25;;;0.53;100.00
10466;BME280;5280;42.600;23.556;2023-01-16T05:13:20;93071.00;;;0.55;100.00
10466;BME280;5280;42.600;23.556;2023-01-16T05:15:55;93057.94;;;0.57;100.00
10466;BME280;5280;42.600;23.556;2023-01-16T05:18:31;93053.84;;;0.51;100.00
10466;BME280;5280;42.600;23.556;2023-01-16T05:20:59;93042.41;;;0.55;100.00
10466;BME280;5280;42.600;23.556;2023-01-16T05:23:26;93037.34;;;0.52;100.00
10466;BME280;5280;42.600;23.556;2023-01-16T05:25:55;93047.41;;;0.60;100.00
10466;BME280;5280;42.600;23.556;2023-01-16T05:28:26;93043.19;;;0.57;100.00
10466;BME280;5280;42.600;23.556;2023-01-16T05:30:53;93031.88;;;0.58;100.00
10466;BME280;5280;42.600;23.556;2023-01-16T05:33:21;93019.03;;;0.36;100.00
10466;BME280;5280;42.600;23.556;2023-01-16T05:35:49;93023.31;;;0.37;100.00
10466;BME280;5280;42.600;23.556;2023-01-16T05:38:18;93017.91;;;0.42;100.00
10466;BME280;5280;42.600;23.556;2023-01-16T05:40:45;93002.75;;;0.33;100.00
10466;BME280;5280;42.600;23.556;2023-01-16T05:43:26;92920.63;;;-0.07;100.00
10466;BME280;5280;42.600;23.556;2023-01-16T05:45:54;93009.94;;;0.45;100.00
10466;BME280;5280;42.600;23.556;2023-01-16T05:48:31;93010.38;;;0.36;100.00
10466;BME280;5280;42.600;23.556;2023-01-16T05:51:07;92943.13;;;0.11;100.00
10466;BME280;5280;42.600;23.556;2023-01-16T05:53:45;92987.31;;;0.30;100.00
10466;BME280;5280;42.600;23.556;2023-01-16T05:56:20;92990.50;;;0.35;100.00
10466;BME280;5280;42.600;23.556;2023-01-16T05:58:49;93013.28;;;0.49;100.00
10466;BME280;5280;42.600;23.556;2023-01-16T06:01:16;93017.34;;;0.54;100.00
10466;BME280;5280;42.600;23.556;2023-01-16T06:03:46;92985.19;;;0.38;100.00
10466;BME280;5280;42.600;23.556;2023-01-16T06:06:14;92998.75;;;0.45;100.00
10466;BME280;5280;42.600;23.556;2023-01-16T06:08:44;93012.22;;;0.53;100.00
10466;BME280;5280;42.600;23.556;2023-01-16T06:11:13;93001.97;;;0.50;100.00
10466;BME280;5280;42.600;23.556;2023-01-16T06:13:44;93023.38;;;0.55;100.00
10466;BME280;5280;42.600;23.556;2023-01-16T06:16:13;93008.47;;;0.58;100.00
10466;BME280;5280;42.600;23.556;2023-01-16T06:18:40;93014.25;;;0.65;100.00
10466;BME280;5280;42.600;23.556;2023-01-16T06:21:07;93021.81;;;0.69;100.00
10466;BME280;5280;42.600;23.556;2023-01-16T06:23:35;93027.78;;;0.71;100.00
10466;BME280;5280;42.600;23.556;2023-01-16T06:26:03;92998.03;;;0.60;100.00
10466;BME280;5280;42.600;23.556;2023-01-16T06:28:35;92982.63;;;0.55;100.00
10466;BME280;5280;42.600;23.556;2023-01-16T06:31:02;93011.66;;;0.82;100.00
10466;BME280;5280;42.600;23.556;2023-01-16T06:33:30;93009.00;;;0.83;100.00
10466;BME280;5280;42.600;23.556;2023-01-16T06:36:10;93026.28;;;0.84;100.00
10466;BME280;5280;42.600;23.556;2023-01-16T06:38:38;93001.09;;;0.85;100.00
10466;BME280;5280;42.600;23.556;2023-01-16T06:41:05;93000.66;;;0.94;100.00
10466;BME280;5280;42.600;23.556;2023-01-16T06:43:32;92995.06;;;1.02;100.00
10466;BME280;5280;42.600;23.556;2023-01-16T06:46:02;93004.28;;;1.09;100.00
10466;BME280;5280;42.600;23.556;2023-01-16T06:48:30;93017.91;;;1.14;100.00
10466;BME280;5280;42.600;23.556;2023-01-16T06:51:00;93010.13;;;0.95;100.00
10466;BME280;5280;42.600;23.556;2023-01-16T06:53:27;93029.75;;;1.02;100.00
10466;BME280;5280;42.600;23.556;2023-01-16T06:55:54;92936.75;;;0.54;100.00
10466;BME280;5280;42.600;23.556;2023-01-16T06:58:23;93027.06;;;1.21;100.00
10466;BME280;5280;42.600;23.556;2023-01-16T07:00:50;93034.59;;;1.27;100.00
10466;BME280;5280;42.600;23.556;2023-01-16T07:03:17;93022.41;;;1.27;100.00
10466;BME280;5280;42.600;23.556;2023-01-16T07:05:47;93030.16;;;1.29;100.00
10466;BME280;5280;42.600;23.556;2023-01-16T07:08:14;93013.16;;;1.39;100.00
10466;BME280;5280;42.600;23.556;2023-01-16T07:10:43;93002.19;;;1.50;100.00
10466;BME280;5280;42.600;23.556;2023-01-16T07:13:10;93017.41;;;1.57;100.00
10466;BME280;5280;42.600;23.556;2023-01-16T07:15:37;93011.75;;;1.66;100.00
10466;BME280;5280;42.600;23.556;2023-01-16T07:18:22;92996.59;;;1.57;100.00
10466;BME280;5280;42.600;23.556;2023-01-16T07:21:12;92990.38;;;1.60;100.00
10466;BME280;5280;42.600;23.556;2023-01-16T07:23:59;92996.66;;;1.73;100.00
10466;BME280;5280;42.600;23.556;2023-01-16T07:26:31;92993.50;;;1.84;100.00
10466;BME280;5280;42.600;23.556;2023-01-16T07:29:00;92985.00;;;1.96;100.00
10466;BME280;5280;42.600;23.556;2023-01-16T07:31:28;92974.09;;;2.05;100.00
10466;BME280;5280;42.600;23.556;2023-01-16T07:33:55;92968.56;;;2.11;100.00
10466;BME280;5280;42.600;23.556;2023-01-16T07:36:24;92970.03;;;1.99;100.00
10466;BME280;5280;42.600;23.556;2023-01-16T07:38:51;92985.97;;;2.26;100.00
10466;BME280;5280;42.600;23.556;2023-01-16T07:41:21;92974.19;;;2.35;100.00
10466;BME280;5280;42.600;23.556;2023-01-16T07:43:56;92979.06;;;2.25;100.00
10466;BME280;5280;42.600;23.556;2023-01-16T07:46:24;92995.38;;;2.13;100.00
10466;BME280;5280;42.600;23.556;2023-01-16T07:48:51;92952.22;;;1.92;100.00
10466;BME280;5280;42.600;23.556;2023-01-16T07:51:25;92988.66;;;2.09;100.00
10466;BME280;5280;42.600;23.556;2023-01-16T07:53:52;92988.91;;;2.20;100.00
10466;BME280;5280;42.600;23.556;2023-01-16T07:56:25;92977.41;;;2.24;100.00
10466;BME280;5280;42.600;23.556;2023-01-16T07:58:55;92977.91;;;2.31;100.00
10466;BME280;5280;42.600;23.556;2023-01-16T08:01:23;92970.66;;;2.20;100.00
10466;BME280;5280;42.600;23.556;2023-01-16T08:03:51;92981.78;;;2.24;100.00
10466;BME280;5280;42.600;23.556;2023-01-16T08:06:31;92960.91;;;2.39;100.00
10466;BME280;5280;42.600;23.556;2023-01-16T08:09:09;92951.16;;;2.43;100.00
10466;BME280;5280;42.600;23.556;2023-01-16T08:11:36;92945.78;;;2.46;100.00
10466;BME280;5280;42.600;23.556;2023-01-16T08:14:05;92942.75;;;2.53;100.00
10466;BME280;5280;42.600;23.556;2023-01-16T08:16:33;92947.78;;;2.56;100.00
10466;BME280;5280;42.600;23.556;2023-01-16T08:19:01;92935.66;;;2.55;100.00
10466;BME280;5280;42.600;23.556;2023-01-16T08:21:29;92928.44;;;2.60;100.00
10466;BME280;5280;42.600;23.556;2023-01-16T08:23:56;92935.91;;;2.67;100.00
10466;BME280;5280;42.600;23.556;2023-01-16T08:26:24;92911.84;;;2.62;100.00
10466;BME280;5280;42.600;23.556;2023-01-16T08:28:51;92915.06;;;2.67;100.00
10466;BME280;5280;42.600;23.556;2023-01-16T08:31:19;92924.69;;;2.80;100.00
10466;BME280;5280;42.600;23.556;2023-01-16T08:33:50;92924.63;;;2.82;100.00
10466;BME280;5280;42.600;23.556;2023-01-16T08:36:19;92913.06;;;2.86;100.00
10466;BME280;5280;42.600;23.556;2023-01-16T08:38:55;92855.63;;;2.42;100.00
10466;BME280;5280;42.600;23.556;2023-01-16T08:41:22;92923.69;;;2.83;100.00
10466;BME280;5280;42.600;23.556;2023-01-16T08:44:07;92921.81;;;2.85;100.00
10466;BME280;5280;42.600;23.556;2023-01-16T08:46:55;92911.41;;;2.69;100.00
10466;BME280;5280;42.600;23.556;2023-01-16T08:49:41;92924.63;;;2.66;100.00
10466;BME280;5280;42.600;23.556;2023-01-16T08:52:25;92924.06;;;2.61;100.00
10466;BME280;5280;42.600;23.556;2023-01-16T08:54:57;92930.25;;;2.74;100.00
10466;BME280;5280;42.600;23.556;2023-01-16T08:57:24;92922.88;;;2.67;100.00
10466;BME280;5280;42.600;23.556;2023-01-16T08:59:51;92917.84;;;2.64;100.00
10466;BME280;5280;42.600;23.556;2023-01-16T09:02:21;92913.69;;;2.59;100.00
10466;BME280;5280;42.600;23.556;2023-01-16T09:04:48;92902.94;;;2.66;100.00
10466;BME280;5280;42.600;23.556;2023-01-16T09:07:19;92901.13;;;2.82;100.00
10466;BME280;5280;42.600;23.556;2023-01-16T09:09:46;92869.44;;;2.74;100.00
10466;BME280;5280;42.600;23.556;2023-01-16T09:12:16;92873.31;;;2.96;100.00
10466;BME280;5280;42.600;23.556;2023-01-16T09:15:00;92860.63;;;3.04;100.00
10466;BME280;5280;42.600;23.556;2023-01-16T09:17:27;92875.22;;;3.23;100.00
10466;BME280;5280;42.600;23.556;2023-01-16T09:20:11;92859.94;;;3.31;100.00
10466;BME280;5280;42.600;23.556;2023-01-16T09:22:48;92855.56;;;3.31;100.00
10466;BME280;5280;42.600;23.556;2023-01-16T09:25:17;92855.75;;;3.42;100.00
10466;BME280;5280;42.600;23.556;2023-01-16T09:27:45;92846.16;;;3.43;100.00
10466;BME280;5280;42.600;23.556;2023-01-16T09:30:14;92859.09;;;3.44;100.00
10466;BME280;5280;42.600;23.556;2023-01-16T09:32:43;92866.28;;;3.55;100.00
10466;BME280;5280;42.600;23.556;2023-01-16T09:35:10;92864.88;;;3.50;100.00
10466;BME280;5280;42.600;23.556;2023-01-16T09:37:37;92859.94;;;3.59;100.00
10466;BME280;5280;42.600;23.556;2023-01-16T09:40:09;92850.72;;;3.54;100.00
10466;BME280;5280;42.600;23.556;2023-01-16T09:42:50;92844.19;;;3.46;100.00
10466;BME280;5280;42.600;23.556;2023-01-16T09:45:38;92855.19;;;3.52;100.00
10466;BME280;5280;42.600;23.556;2023-01-16T09:48:12;92842.50;;;3.45;100.00
10466;BME280;5280;42.600;23.556;2023-01-16T09:50:44;92844.94;;;3.49;100.00
10466;BME280;5280;42.600;23.556;2023-01-16T09:53:18;92852.09;;;3.45;100.00
10466;BME280;5280;42.600;23.556;2023-01-16T09:56:03;92851.72;;;3.37;100.00
10466;BME280;5280;42.600;23.556;2023-01-16T09:59:12;92843.34;;;3.46;100.00
10466;BME280;5280;42.600;23.556;2023-01-16T10:01:46;92816.31;;;3.33;100.00
10466;BME280;5280;42.600;23.556;2023-01-16T10:04:19;92821.88;;;3.41;100.00
10466;BME280;5280;42.600;23.556;2023-01-16T10:06:55;92820.47;;;3.50;100.00
10466;BME280;5280;42.600;23.556;2023-01-16T10:09:31;92814.31;;;3.65;100.00
10466;BME280;5280;42.600;23.556;2023-01-16T10:12:04;92813.72;;;3.74;100.00
10466;BME280;5280;42.600;23.556;2023-01-16T10:14:48;92788.03;;;3.54;100.00
10466;BME280;5280;42.600;23.556;2023-01-16T10:17:29;92812.97;;;3.86;100.00
10466;BME280;5280;42.600;23.556;2023-01-16T10:20:22;92809.22;;;3.90;100.00
10466;BME280;5280;42.600;23.556;2023-01-16T10:23:00;92801.56;;;4.01;100.00
10466;BME280;5280;42.600;23.556;2023-01-16T10:25:38;92762.38;;;3.87;100.00
10466;BME280;5280;42.600;23.556;2023-01-16T10:28:28;92780.19;;;4.21;100.00
10466;BME280;5280;42.600;23.556;2023-01-16T10:31:08;92776.22;;;4.28;100.00
10466;BME280;5280;42.600;23.556;2023-01-16T10:33:41;92783.69;;;4.34;100.00
10466;BME280;5280;42.600;23.556;2023-01-16T10:36:14;92771.59;;;4.46;100.00
10466;BME280;5280;42.600;23.556;2023-01-16T10:38:47;92757.97;;;4.54;100.00
10466;BME280;5280;42.600;23.556;2023-01-16T10:41:23;92670.53;;;4.06;100.00
10466;BME280;5280;42.600;23.556;2023-01-16T10:44:21;92742.72;;;4.60;100.00
10466;BME280;5280;42.600;23.556;2023-01-16T10:47:11;92757.63;;;4.85;100.00
10466;BME280;5280;42.600;23.556;2023-01-16T10:49:57;92745.66;;;4.68;100.00
10466;BME280;5280;42.600;23.556;2023-01-16T10:52:27;92752.25;;;4.74;100.00
10466;BME280;5280;42.600;23.556;2023-01-16T10:55:01;92723.38;;;4.63;100.00
10466;BME280;5280;42.600;23.556;2023-01-16T10:57:29;92721.28;;;4.68;100.00
10466;BME280;5280;42.600;23.556;2023-01-16T11:00:02;92733.84;;;4.88;100.00
10466;BME280;5280;42.600;23.556;2023-01-16T11:02:39;92713.00;;;4.74;100.00
10466;BME280;5280;42.600;23.556;2023-01-16T11:05:27;92708.72;;;4.98;100.00
10466;BME280;5280;42.600;23.556;2023-01-16T11:07:56;92703.41;;;4.87;100.00
10466;BME280;5280;42.600;23.556;2023-01-16T11:10:29;92683.91;;;4.78;100.00
10466;BME280;5280;42.600;23.556;2023-01-16T11:12:56;92624.66;;;4.65;100.00
10466;BME280;5280;42.600;23.556;2023-01-16T11:15:59;92674.25;;;5.04;100.00
10466;BME280;5280;42.600;23.556;2023-01-16T11:18:47;92653.53;;;5.01;99.97
10466;BME280;5280;42.600;23.556;2023-01-16T11:21:17;92673.50;;;5.15;100.00
10466;BME280;5280;42.600;23.556;2023-01-16T11:23:57;92658.97;;;5.11;100.00
10466;BME280;5280;42.600;23.556;2023-01-16T11:26:26;92660.09;;;5.19;99.97
10466;BME280;5280;42.600;23.556;2023-01-16T11:28:53;92658.81;;;5.25;100.00
10466;BME280;5280;42.600;23.556;2023-01-16T11:31:23;92646.47;;;5.14;98.34
10466;BME280;5280;42.600;23.556;2023-01-16T11:34:27;92643.66;;;5.17;98.31
10466;BME280;5280;42.600;23.556;2023-01-16T11:37:09;92648.38;;;5.12;99.58
10466;BME280;5280;42.600;23.556;2023-01-16T11:39:45;92654.66;;;5.10;98.96
10466;BME280;5280;42.600;23.556;2023-01-16T11:42:14;92642.63;;;5.07;98.62
10466;BME280;5280;42.600;23.556;2023-01-16T11:44:56;92647.13;;;5.05;97.50
10466;BME280;5280;42.600;23.556;2023-01-16T11:47:43;92637.50;;;4.93;97.14
10466;BME280;5280;42.600;23.556;2023-01-16T11:50:27;92626.41;;;4.90;96.87
10466;BME280;5280;42.600;23.556;2023-01-16T11:52:55;92641.72;;;4.96;97.13
10466;BME280;5280;42.600;23.556;2023-01-16T11:55:36;92611.03;;;4.85;98.67
10466;BME280;5280;42.600;23.556;2023-01-16T11:58:11;92640.22;;;5.04;98.95
10466;BME280;5280;42.600;23.556;2023-01-16T12:01:00;92554.56;;;4.57;99.37
10466;BME280;5280;42.600;23.556;2023-01-16T12:03:54;92638.44;;;5.17;100.00
10466;BME280;5280;42.600;23.556;2023-01-16T12:06:38;92632.31;;;5.30;100.00
10466;BME280;5280;42.600;23.556;2023-01-16T12:09:26;92619.53;;;5.25;100.00
10466;BME280;5280;42.600;23.556;2023-01-16T12:12:17;92640.69;;;5.35;99.27
10466;BME280;5280;42.600;23.556;2023-01-16T12:15:05;92633.97;;;5.31;98.75
10466;BME280;5280;42.600;23.556;2023-01-16T12:18:00;92627.91;;;5.30;97.26
10466;BME280;5280;42.600;23.556;2023-01-16T12:20:44;92630.44;;;5.32;97.66
10466;BME280;5280;42.600;23.556;2023-01-16T12:23:40;92625.19;;;5.19;96.29
10466;BME280;5280;42.600;23.556;2023-01-16T12:26:19;92626.66;;;5.23;97.37
10466;BME280;5280;42.600;23.556;2023-01-16T12:28:59;92610.13;;;5.23;96.94
10466;BME280;5280;42.600;23.556;2023-01-16T12:31:49;92603.13;;;5.10;97.23
10466;BME280;5280;42.600;23.556;2023-01-16T12:34:36;92603.66;;;5.15;96.53
10466;BME280;5280;42.600;23.556;2023-01-16T12:37:19;92593.41;;;5.12;96.90
10466;BME280;5280;42.600;23.556;2023-01-16T12:39:55;92568.59;;;5.05;97.13
10466;BME280;5280;42.600;23.556;2023-01-16T12:42:42;92571.25;;;4.93;97.83
10466;BME280;5280;42.600;23.556;2023-01-16T12:45:41;92573.56;;;4.85;98.47
10466;BME280;5280;42.600;23.556;2023-01-16T12:48:23;92574.31;;;4.74;99.49
10466;BME280;5280;42.600;23.556;2023-01-16T12:51:05;92575.47;;;4.70;99.69
10466;BME280;5280;42.600;23.556;2023-01-16T12:53:56;92547.03;;;4.53;99.61
10466;BME280;5280;42.600;23.556;2023-01-16T12:56:38;92528.41;;;4.45;100.00
10466;BME280;5280;42.600;23.556;2023-01-16T12:59:15;92526.22;;;4.39;100.00
10466;BME280;5280;42.600;23.556;2023-01-16T13:01:47;92508.13;;;4.36;100.00
10466;BME280;5280;42.600;23.556;2023-01-16T13:04:24;92482.00;;;4.10;100.00
10466;BME280;5280;42.600;23.556;2023-01-16T13:06:58;92531.88;;;4.20;100.00
10466;BME280;5280;42.600;23.556;2023-01-16T13:09:46;92549.56;;;4.29;100.00
10466;BME280;5280;42.600;23.556;2023-01-16T13:12:38;92537.09;;;4.20;100.00
10466;BME280;5280;42.600;23.556;2023-01-16T13:15:26;92531.69;;;4.10;100.00
10466;BME280;5280;42.600;23.556;2023-01-16T13:17:58;92531.38;;;4.02;100.00
10466;BME280;5280;42.600;23.556;2023-01-16T13:20:30;92545.59;;;3.98;100.00
10466;BME280;5280;42.600;23.556;2023-01-16T13:23:01;92540.34;;;3.85;100.00
10466;BME280;5280;42.600;23.556;2023-01-16T13:25:33;92549.44;;;3.80;100.00
10466;BME280;5280;42.600;23.556;2023-01-16T13:28:07;92531.13;;;3.80;100.00
10466;BME280;5280;42.600;23.556;2023-01-16T13:30:40;92530.13;;;3.82;100.00
10466;BME280;5280;42.600;23.556;2023-01-16T13:33:11;92506.38;;;3.73;100.00
10466;BME280;5280;42.600;23.556;2023-01-16T13:35:46;92527.19;;;3.87;100.00
10466;BME280;5280;42.600;23.556;2023-01-16T13:38:49;92520.06;;;3.76;100.00
10466;BME280;5280;42.600;23.556;2023-01-16T13:41:24;92505.53;;;3.72;100.00